createdAt,value
2023-05-23T00:03:33.822Z,77.48
2023-05-23T00:08:25.829Z,77.42
2023-05-23T00:13:17.722Z,77.43
2023-05-23T00:18:12.395Z,77.44
2023-05-23T00:23:04.446Z,77.72
2023-05-23T00:27:56.135Z,77.43
2023-05-23T00:32:47.852Z,78.22
2023-05-23T00:37:40.616Z,77.91
2023-05-23T00:42:32.736Z,77.63
2023-05-23T00:47:24.606Z,77.98
2023-05-23T00:52:17.564Z,78.82
2023-05-23T00:57:09.235Z,79.00
2023-05-23T01:02:00.981Z,78.73
2023-05-23T01:06:56.284Z,78.67
2023-05-23T01:12:04.646Z,79.10
2023-05-23T01:17:01.668Z,79.27
2023-05-23T01:21:55.410Z,79.31
2023-05-23T01:26:48.335Z,79.65
2023-05-23T01:31:46.084Z,79.50
2023-05-23T01:36:43.050Z,79.29
2023-05-23T01:41:34.998Z,79.69
2023-05-23T01:46:28.753Z,79.42
2023-05-23T01:51:22.701Z,79.34
2023-05-23T01:56:14.470Z,79.59
2023-05-23T02:01:06.721Z,80.12
2023-05-23T02:05:58.363Z,80.30
2023-05-23T02:10:50.533Z,80.23
2023-05-23T02:15:42.375Z,79.94
2023-05-23T02:20:34.308Z,80.36
2023-05-23T02:25:25.879Z,80.02
2023-05-23T02:30:17.604Z,80.30
2023-05-23T02:35:10.613Z,80.06
2023-05-23T02:40:02.288Z,79.83
2023-05-23T02:44:54.216Z,80.65
2023-05-23T02:49:45.922Z,80.78
2023-05-23T02:54:37.597Z,80.49
2023-05-23T02:59:29.301Z,80.57
2023-05-23T03:04:21.500Z,80.42
2023-05-23T03:09:16.908Z,80.30
2023-05-23T03:14:08.511Z,80.60
2023-05-23T03:19:00.826Z,81.21
2023-05-23T03:23:52.486Z,81.61
2023-05-23T03:28:44.057Z,82.38
2023-05-23T03:33:37.084Z,82.48
2023-05-23T03:38:30.732Z,82.67
2023-05-23T03:43:22.425Z,83.09
2023-05-23T03:48:14.103Z,82.84
2023-05-23T03:53:06.116Z,82.35
2023-05-23T03:57:57.754Z,83.17
2023-05-23T04:02:52.196Z,82.98
2023-05-23T04:07:45.585Z,83.34
2023-05-23T04:12:38.574Z,83.39
2023-05-23T04:17:31.799Z,83.52
2023-05-23T04:22:23.706Z,83.82
2023-05-23T04:27:15.399Z,84.12
2023-05-23T04:32:08.167Z,84.06
2023-05-23T04:37:03.093Z,84.21
2023-05-23T04:41:54.694Z,84.39
2023-05-23T04:46:46.398Z,84.33
2023-05-23T04:51:38.440Z,84.74
2023-05-23T04:56:30.177Z,84.46
2023-05-23T05:01:24.513Z,84.55
2023-05-23T05:06:18.457Z,84.96
2023-05-23T05:11:10.567Z,84.36
2023-05-23T05:16:03.135Z,84.70
2023-05-23T05:20:55.974Z,84.27
2023-05-23T05:25:47.957Z,84.75
2023-05-23T05:30:40.043Z,84.83
2023-05-23T05:35:32.521Z,84.41
2023-05-23T05:40:24.414Z,84.85
2023-05-23T05:45:18.102Z,83.71
2023-05-23T05:50:11.855Z,83.94
2023-05-23T05:55:03.646Z,84.23
2023-05-23T05:59:55.429Z,83.61
2023-05-23T06:04:47.182Z,83.66
2023-05-23T06:09:39.284Z,83.89
2023-05-23T06:14:31.008Z,83.39
2023-05-23T06:19:23.342Z,83.31
2023-05-23T06:24:15.125Z,83.29
2023-05-23T06:29:06.734Z,83.34
2023-05-23T06:33:58.494Z,83.32
2023-05-23T06:38:50.138Z,83.42
2023-05-23T06:43:41.956Z,82.56
2023-05-23T06:48:33.698Z,82.80
2023-05-23T06:53:25.297Z,82.16
2023-05-23T06:58:16.895Z,81.57
2023-05-23T07:03:08.677Z,80.96
2023-05-23T07:08:01.579Z,78.52
2023-05-23T07:12:53.221Z,77.88
2023-05-23T07:17:44.927Z,75.97
2023-05-23T07:22:36.771Z,75.06
2023-05-23T07:27:29.172Z,75.60
2023-05-23T07:32:20.916Z,74.31
2023-05-23T07:37:12.517Z,74.96
2023-05-23T07:42:04.380Z,74.77
2023-05-23T07:46:56.100Z,73.94
2023-05-23T07:51:47.912Z,74.33
2023-05-23T07:56:40.047Z,73.67
2023-05-23T08:01:31.880Z,73.72
2023-05-23T08:06:23.518Z,74.40
2023-05-23T08:11:15.682Z,73.96
2023-05-23T08:16:07.452Z,74.10
2023-05-23T08:20:59.131Z,74.13
2023-05-23T08:25:51.810Z,74.14
2023-05-23T08:30:43.642Z,74.44
2023-05-23T08:35:36.842Z,74.81
2023-05-23T08:40:32.173Z,75.82
2023-05-23T08:45:23.936Z,75.77
2023-05-23T08:50:18.697Z,75.43
2023-05-23T08:55:13.201Z,74.67
2023-05-23T09:00:11.120Z,75.08
2023-05-23T09:05:03.153Z,74.49
2023-05-23T09:09:55.187Z,74.41
2023-05-23T09:14:47.218Z,74.35
2023-05-23T09:19:42.284Z,74.10
2023-05-23T09:24:36.028Z,74.37
2023-05-23T09:29:28.052Z,73.29
2023-05-23T09:34:19.673Z,73.00
2023-05-23T09:39:12.558Z,73.15
2023-05-23T09:44:10.088Z,69.91
2023-05-23T09:49:02.175Z,70.52
2023-05-23T09:53:54.077Z,70.01
2023-05-23T09:58:48.669Z,70.25
2023-05-23T10:04:00.027Z,69.86
2023-05-23T10:08:59.402Z,68.18
2023-05-23T10:13:51.242Z,68.34
2023-05-23T10:18:44.470Z,67.45
2023-05-23T10:23:37.751Z,67.27
2023-05-23T10:28:29.411Z,67.41
2023-05-23T10:33:22.678Z,67.86
2023-05-23T10:38:31.741Z,67.42
2023-05-23T10:43:31.218Z,67.36
2023-05-23T10:48:32.700Z,67.22
2023-05-23T10:53:24.364Z,66.93
2023-05-23T10:58:19.862Z,65.38
2023-05-23T11:03:11.785Z,65.66
2023-05-23T11:08:18.004Z,66.35
2023-05-23T11:13:11.141Z,66.80
2023-05-23T11:18:07.007Z,66.59
2023-05-23T11:23:04.109Z,66.01
2023-05-23T11:27:55.849Z,66.65
2023-05-23T11:32:53.196Z,65.65
2023-05-23T11:37:44.986Z,66.76
2023-05-23T11:42:42.272Z,66.42
2023-05-23T11:47:40.690Z,65.70
2023-05-23T11:52:33.335Z,65.43
2023-05-23T11:57:24.938Z,65.72
2023-05-23T12:02:16.542Z,64.70
2023-05-23T12:07:08.319Z,65.09
2023-05-23T12:12:00.058Z,64.97
2023-05-23T12:16:52.826Z,64.95
2023-05-23T12:21:49.026Z,64.13
2023-05-23T12:26:55.327Z,62.38
2023-05-23T12:31:51.474Z,61.34
2023-05-23T12:36:49.061Z,60.35
2023-05-23T12:41:42.666Z,58.02
2023-05-23T12:46:34.768Z,56.51
2023-05-23T12:51:26.631Z,56.72
2023-05-23T12:56:18.722Z,57.18
2023-05-23T13:01:11.220Z,58.11
2023-05-23T13:06:03.306Z,57.10
2023-05-23T13:10:55.109Z,56.46
2023-05-23T13:15:48.136Z,54.42
2023-05-23T13:20:42.366Z,54.04
2023-05-23T13:25:33.956Z,54.10
2023-05-23T13:30:25.580Z,53.11
2023-05-23T13:35:17.283Z,52.27
2023-05-23T13:40:13.452Z,51.54
2023-05-23T13:45:06.273Z,52.11
2023-05-23T13:49:58.088Z,52.50
2023-05-23T13:54:49.734Z,53.25
2023-05-23T13:59:41.344Z,51.65
2023-05-23T14:04:33.036Z,50.87
2023-05-23T14:09:24.774Z,49.10
2023-05-23T14:14:17.838Z,51.04
2023-05-23T14:19:10.126Z,51.05
2023-05-23T14:24:02.983Z,51.52
2023-05-23T14:28:55.247Z,50.54
2023-05-23T14:33:47.741Z,48.98
2023-05-23T14:38:40.812Z,50.51
2023-05-23T14:43:32.528Z,50.93
2023-05-23T14:48:24.292Z,50.11
2023-05-23T14:53:16.163Z,49.35
2023-05-23T14:58:08.106Z,49.55
2023-05-23T15:02:59.932Z,49.51
2023-05-23T15:07:51.634Z,48.49
2023-05-23T15:12:43.946Z,48.43
2023-05-23T15:17:35.771Z,47.86
2023-05-23T15:27:24.014Z,46.59
2023-05-23T15:32:16.034Z,46.42
2023-05-23T15:37:07.829Z,45.29
2023-05-23T15:41:59.687Z,46.99
2023-05-23T15:46:51.974Z,44.99
2023-05-23T15:51:43.666Z,45.99
2023-05-23T15:56:35.461Z,46.95
2023-05-23T16:01:27.153Z,47.01
2023-05-23T16:06:18.923Z,46.55
2023-05-23T16:11:10.646Z,48.02
2023-05-23T16:16:04.118Z,47.55
2023-05-23T16:20:57.206Z,47.24
2023-05-23T16:25:49.038Z,46.71
2023-05-23T16:30:40.785Z,46.74
2023-05-23T16:35:32.497Z,46.77
2023-05-23T16:40:24.308Z,46.46
2023-05-23T16:45:16.024Z,45.68
2023-05-23T16:50:09.217Z,46.63
2023-05-23T16:55:00.855Z,47.41
2023-05-23T16:59:52.695Z,47.14
2023-05-23T17:04:44.311Z,47.15
2023-05-23T17:09:36.802Z,48.73
2023-05-23T17:14:28.821Z,48.33
2023-05-23T17:19:20.963Z,48.59
2023-05-23T17:24:13.162Z,47.40
2023-05-23T17:29:05.276Z,47.19
2023-05-23T17:33:56.935Z,46.92
2023-05-23T17:38:48.794Z,47.19
2023-05-23T17:43:43.000Z,45.48
2023-05-23T17:48:46.433Z,45.30
2023-05-23T17:53:41.450Z,44.30
2023-05-23T17:58:33.131Z,45.70
2023-05-23T18:03:24.881Z,47.75
2023-05-23T18:08:16.512Z,48.84
2023-05-23T18:13:08.112Z,51.37
2023-05-23T18:17:59.821Z,53.17
2023-05-23T18:22:53.875Z,54.28
2023-05-23T18:27:45.858Z,55.42
2023-05-23T18:32:37.530Z,56.03
2023-05-23T18:37:29.131Z,56.94
2023-05-23T18:42:21.147Z,57.31
2023-05-23T18:47:13.052Z,56.78
2023-05-23T18:52:06.198Z,54.92
2023-05-23T18:56:57.851Z,51.58
2023-05-23T19:01:49.600Z,50.85
2023-05-23T19:06:42.453Z,49.45
2023-05-23T19:11:34.115Z,50.10
2023-05-23T19:16:25.844Z,50.19
2023-05-23T19:21:17.464Z,50.62
2023-05-23T19:26:10.312Z,51.79
2023-05-23T19:31:02.030Z,52.45
2023-05-23T19:35:53.771Z,52.99
2023-05-23T19:40:47.068Z,53.44
2023-05-23T19:45:38.844Z,53.55
2023-05-23T19:50:30.481Z,53.96
2023-05-23T19:55:22.373Z,54.56
2023-05-23T20:00:15.406Z,55.21
2023-05-23T20:05:08.369Z,55.71
2023-05-23T20:10:00.023Z,55.98
2023-05-23T20:14:51.879Z,56.15
2023-05-23T20:19:43.523Z,56.67
2023-05-23T20:24:35.267Z,56.71
2023-05-23T20:29:27.040Z,57.45
2023-05-23T20:34:18.745Z,58.05
2023-05-23T20:39:10.456Z,58.88
2023-05-23T20:44:02.273Z,59.16
2023-05-23T20:48:53.920Z,60.01
2023-05-23T20:53:45.711Z,60.11
2023-05-23T20:58:37.963Z,61.03
2023-05-23T21:03:29.605Z,61.71
2023-05-23T21:08:22.625Z,62.00
2023-05-23T21:13:14.199Z,62.22
2023-05-23T21:18:06.002Z,63.31
2023-05-23T21:22:57.638Z,63.47
2023-05-23T21:27:49.230Z,64.51
2023-05-23T21:32:41.117Z,64.65
2023-05-23T21:37:32.749Z,64.93
2023-05-23T21:42:25.521Z,66.04
2023-05-23T21:47:17.246Z,66.61
2023-05-23T21:52:08.899Z,67.30
2023-05-23T21:57:00.565Z,67.41
2023-05-23T22:01:52.294Z,67.72
2023-05-23T22:06:44.075Z,68.24
2023-05-23T22:11:35.714Z,68.62
2023-05-23T22:16:28.293Z,68.81
2023-05-23T22:21:19.960Z,69.67
2023-05-23T22:26:12.685Z,69.82
2023-05-23T22:31:04.511Z,69.75
2023-05-23T22:35:56.222Z,70.67
2023-05-23T22:40:47.950Z,70.94
2023-05-23T22:45:42.683Z,70.95
2023-05-23T22:50:41.004Z,71.84
2023-05-23T22:55:32.787Z,72.16
2023-05-23T23:00:28.007Z,73.19
2023-05-23T23:05:20.758Z,74.57
2023-05-23T23:10:12.434Z,74.79
2023-05-23T23:15:04.805Z,75.78
2023-05-23T23:19:57.772Z,75.58
2023-05-23T23:24:49.537Z,76.02
2023-05-23T23:29:41.182Z,76.69
2023-05-23T23:34:32.821Z,77.06
2023-05-23T23:39:24.508Z,77.08
2023-05-23T23:44:16.455Z,77.61
2023-05-23T23:49:08.048Z,77.74
2023-05-23T23:53:59.939Z,78.25
2023-05-23T23:58:52.158Z,78.65
